Aérodrome :
LOGIN :

S'inscrire | Disclaimer

   EN    FR    IT 

 










Légende :    VFR   VFR Marginal   IFR   IFR Intensif   IFR Très Intensif
Visi : 
Plafond : 
>= 8 km
>= 3000ft
5 à 8 km
1000 à 3000 ft
1500m à 5 km
500 à 1000 ft
800 à 1500m
200 à 500 ft
< 800m
< 200 ft
Symboles :   Orages  Brouillard  Fortes neiges  Fortes précipitations  Vent > 20 kt
SIGMETs :   Divers  Orages  Givrage  Turbulence  Onde Orograph.  Cendres Volcan.







- Altitude de l'aérodrome : 538 ft
- Code IATA : TNF
- Voir les cartes d'approche


LFPN - Toussus Le Noble

DERNIER METAR :
  • 180630Z AUTO 20007KT 9999 -RA FEW006 OVC084 18/17 Q1015 TEMPO 2000 RA BKN004 SCT015CB

METARs EXPIRÉS :
  • 180600Z AUTO 21005KT 9999 -RA BKN007/// BKN050/// BKN060/// ///TCU 18/18 Q1015 TEMPO 2000 RA BKN004 SCT015CB
  • 180530Z AUTO 19003KT 9999 -RA FEW037/// OVC100/// ///TCU 18/18 Q1015 TEMPO 2000 RA BKN004 SCT015CB
  • 180500Z AUTO 22006KT 9999 -RA FEW014/// BKN084/// OVC100/// ///TCU 18/18 Q1015
  • 180430Z AUTO 22004KT 9999 -RA BKN011/// BKN020/// BKN031/// ///TCU 18/18 Q1015
  • 180400Z AUTO 23004KT 9999 -RA FEW016/// SCT029/// BKN088/// ///TCU 19/18 Q1015

TAF TAF LFPN
Valide du 18 à 06h jusqu'au 18 à 15h UTC


180500Z 1806/1815 22010KT 9999 BKN016 BKN080
TEMPO 1806/1812 -RA BKN006 BKN011 SCT014TCU
PROB40
TEMPO 1806/1809 2000 RA BKN004 SCT015CB
BECMG 1812/1814 26010KT SCT018
ATIS : +33 1 39 56 54 70
Pas de NOTAMs connus pour ce terrain.



MET'MAP, la Météo Aéronautique d'un coup d'oeil ! - Copyright ORBIFLY Décembre 2007 - Disclaimer

ORBIFLY MET'MAP TEAM :

Programmation & Développement : Alexandra Zaïnal
Conception & Développement : Baudouin d'Aumeries
Co-Programmation & Développement : Marc-Olivier Méhu
Soutien technique & logistique : Manuel Goepfert

Contact : metmap@orbifly.com




SOURCES & CREDITS :

   NOAA